Terminal Aerodrome Forecast
Issued by NWS Mobile, AL

Home | Current Version | Previous Version | Text Only | Print | Product List | Glossary On
Versions: 1 2 3 4 5 6 7 8 9 10 11 12 13
000
FTUS44 KMOB 261125
TAFMOB
TAF
KMOB 261125Z 2612/2712 00000KT P6SM SCT100 OVC250
     FM261900 18011KT P6SM SCT050 BKN100 OVC250=

USA.gov is the U.S. government's official web portal to all federal, state and local government web resources and services.